createdAt,value
2023-06-16T00:01:16.437Z,17.00
2023-06-16T00:03:51.239Z,16.90
2023-06-16T00:06:20.850Z,16.90
2023-06-16T00:08:52.810Z,16.90
2023-06-16T00:11:21.077Z,17.00
2023-06-16T00:13:50.680Z,16.90
2023-06-16T00:16:20.558Z,16.90
2023-06-16T00:18:50.722Z,16.90
2023-06-16T00:21:24.952Z,16.80
2023-06-16T00:23:54.507Z,16.80
2023-06-16T00:26:22.949Z,16.80
2023-06-16T00:28:51.181Z,16.90
2023-06-16T00:31:19.234Z,16.90
2023-06-16T00:33:47.262Z,16.90
2023-06-16T00:36:17.667Z,16.90
2023-06-16T00:38:45.805Z,16.90
2023-06-16T00:41:15.811Z,16.90
2023-06-16T00:43:44.832Z,16.80
2023-06-16T00:46:20.776Z,16.80
2023-06-16T00:48:48.843Z,16.80
2023-06-16T00:51:17.172Z,16.80
2023-06-16T00:53:45.302Z,16.90
2023-06-16T00:56:13.673Z,16.80
2023-06-16T00:58:43.089Z,16.80
2023-06-16T01:01:13.739Z,16.80
2023-06-16T01:03:42.209Z,16.80
2023-06-16T01:06:21.738Z,16.80
2023-06-16T01:08:58.583Z,16.70
2023-06-16T01:11:39.545Z,16.70
2023-06-16T01:14:17.501Z,16.70
2023-06-16T01:16:49.036Z,16.80
2023-06-16T01:19:29.686Z,16.80
2023-06-16T01:22:08.517Z,16.80
2023-06-16T01:24:38.745Z,16.80
2023-06-16T01:27:10.001Z,16.70
2023-06-16T01:29:39.190Z,16.70
2023-06-16T01:32:09.602Z,16.70
2023-06-16T01:34:38.136Z,16.70
2023-06-16T01:37:07.633Z,16.80
2023-06-16T01:39:38.041Z,16.80
2023-06-16T01:42:07.069Z,16.80
2023-06-16T01:44:36.427Z,16.80
2023-06-16T01:47:04.571Z,16.70
2023-06-16T01:49:34.265Z,16.70
2023-06-16T01:52:02.884Z,16.70
2023-06-16T01:54:30.889Z,16.60
2023-06-16T01:57:00.301Z,16.70
2023-06-16T01:59:28.312Z,16.70
2023-06-16T02:02:02.409Z,16.60
2023-06-16T02:04:34.238Z,16.60
2023-06-16T02:07:07.933Z,16.60
2023-06-16T02:09:37.792Z,16.70
2023-06-16T02:12:10.524Z,16.70
2023-06-16T02:14:39.527Z,16.70
2023-06-16T02:17:10.693Z,16.60
2023-06-16T02:19:39.416Z,16.70
2023-06-16T02:22:07.888Z,16.70
2023-06-16T02:24:37.249Z,16.60
2023-06-16T02:27:07.559Z,16.60
2023-06-16T02:29:35.606Z,16.60
2023-06-16T02:32:03.727Z,16.60
2023-06-16T02:34:31.722Z,16.60
2023-06-16T02:37:01.483Z,16.60
2023-06-16T02:39:29.481Z,16.60
2023-06-16T02:41:57.520Z,16.60
2023-06-16T02:44:26.901Z,16.60
2023-06-16T02:46:55.597Z,16.50
2023-06-16T02:49:23.877Z,16.50
2023-06-16T02:51:52.004Z,16.60
2023-06-16T02:54:20.099Z,16.60
2023-06-16T02:56:48.170Z,16.50
2023-06-16T02:59:16.852Z,16.50
2023-06-16T03:01:46.289Z,16.50
2023-06-16T03:04:23.712Z,16.50
2023-06-16T03:06:58.485Z,16.50
2023-06-16T03:09:33.862Z,16.60
2023-06-16T03:12:02.822Z,16.60
2023-06-16T03:14:34.196Z,16.60
2023-06-16T03:17:14.904Z,16.50
2023-06-16T03:19:43.269Z,16.60
2023-06-16T03:22:12.320Z,16.60
2023-06-16T03:24:44.633Z,16.60
2023-06-16T03:27:13.554Z,16.60
2023-06-16T03:29:48.906Z,16.60
2023-06-16T03:32:18.356Z,16.60
2023-06-16T03:34:47.358Z,16.60
2023-06-16T03:37:15.449Z,16.60
2023-06-16T03:39:43.436Z,16.60
2023-06-16T03:42:11.719Z,16.60
2023-06-16T03:44:39.797Z,16.70
2023-06-16T03:47:08.484Z,16.80
2023-06-16T03:49:37.850Z,16.80
2023-06-16T03:52:06.688Z,16.80
2023-06-16T03:54:34.722Z,16.80
2023-06-16T03:57:04.798Z,16.70
2023-06-16T03:59:33.331Z,16.70
2023-06-16T04:02:07.630Z,16.60
2023-06-16T04:04:39.056Z,16.70
2023-06-16T04:07:08.780Z,16.70
2023-06-16T04:09:37.069Z,16.70
2023-06-16T04:12:05.893Z,16.70
2023-06-16T04:14:36.536Z,16.60
2023-06-16T04:17:05.656Z,16.60
2023-06-16T04:19:34.052Z,16.60
2023-06-16T04:22:05.045Z,16.60
2023-06-16T04:24:44.946Z,16.60
2023-06-16T04:27:13.438Z,16.70
2023-06-16T04:29:43.833Z,16.70
2023-06-16T04:32:15.184Z,16.70
2023-06-16T04:34:46.265Z,16.80
2023-06-16T04:37:17.848Z,17.00
2023-06-16T04:39:45.915Z,17.10
2023-06-16T04:42:19.513Z,17.10
2023-06-16T04:44:48.731Z,17.20
2023-06-16T04:47:18.660Z,17.20
2023-06-16T04:49:47.608Z,17.30
2023-06-16T04:52:17.095Z,17.30
2023-06-16T04:54:45.203Z,17.40
2023-06-16T04:57:13.209Z,17.60
2023-06-16T04:59:41.227Z,17.80
2023-06-16T05:02:09.565Z,17.90
2023-06-16T05:04:39.069Z,18.10
2023-06-16T05:07:07.683Z,18.20
2023-06-16T05:09:37.037Z,18.20
2023-06-16T05:12:06.860Z,18.10
2023-06-16T05:14:35.175Z,18.00
2023-06-16T05:17:03.360Z,18.00
2023-06-16T05:19:33.074Z,17.80
2023-06-16T05:22:01.125Z,17.80
2023-06-16T05:24:31.665Z,17.70
2023-06-16T05:27:02.537Z,17.70
2023-06-16T05:29:30.912Z,17.70
2023-06-16T05:32:00.280Z,17.70
2023-06-16T05:34:28.749Z,17.80
2023-06-16T05:36:56.731Z,17.80
2023-06-16T05:39:27.535Z,17.90
2023-06-16T05:41:55.556Z,18.00
2023-06-16T05:44:25.299Z,18.10
2023-06-16T05:46:53.294Z,18.20
2023-06-16T05:49:22.466Z,18.60
2023-06-16T05:51:52.776Z,19.00
2023-06-16T05:54:20.811Z,19.40
2023-06-16T05:56:48.934Z,19.80
2023-06-16T05:59:16.997Z,20.20
2023-06-16T06:01:46.422Z,20.50
2023-06-16T06:04:14.745Z,20.70
2023-06-16T06:06:42.814Z,21.00
2023-06-16T06:09:11.056Z,21.10
2023-06-16T06:11:39.157Z,21.10
2023-06-16T06:14:07.480Z,21.30
2023-06-16T06:16:35.804Z,21.30
2023-06-16T06:19:05.141Z,21.40
2023-06-16T06:21:33.588Z,21.30
2023-06-16T06:24:02.192Z,21.20
2023-06-16T06:26:30.448Z,21.00
2023-06-16T06:28:58.451Z,20.70
2023-06-16T06:31:27.197Z,20.40
2023-06-16T06:33:55.397Z,20.50
2023-06-16T06:36:28.075Z,21.00
2023-06-16T06:38:57.867Z,21.50
2023-06-16T06:41:26.811Z,22.00
2023-06-16T06:43:59.512Z,22.30
2023-06-16T06:46:48.704Z,22.50
2023-06-16T06:49:17.627Z,22.10
2023-06-16T06:51:47.070Z,21.90
2023-06-16T06:54:15.085Z,21.90
2023-06-16T06:56:43.202Z,22.20
2023-06-16T06:59:11.301Z,22.50
2023-06-16T07:01:39.438Z,22.70
2023-06-16T07:04:07.695Z,23.20
2023-06-16T07:06:36.319Z,23.50
2023-06-16T07:09:08.631Z,23.50
2023-06-16T07:11:38.654Z,23.60
2023-06-16T07:14:06.706Z,23.30
2023-06-16T07:16:34.804Z,23.50
2023-06-16T07:19:03.816Z,23.40
2023-06-16T07:21:32.106Z,23.50
2023-06-16T07:24:00.920Z,23.80
2023-06-16T07:26:30.420Z,24.20
2023-06-16T07:28:58.835Z,24.50
2023-06-16T07:31:27.070Z,24.60
2023-06-16T07:33:55.114Z,24.90
2023-06-16T07:36:23.275Z,25.20
2023-06-16T07:38:51.424Z,24.80
2023-06-16T07:41:19.398Z,24.50
2023-06-16T07:43:49.629Z,24.60
2023-06-16T07:46:18.425Z,25.00
2023-06-16T07:48:47.462Z,25.40
2023-06-16T07:51:16.952Z,25.70
2023-06-16T07:53:45.019Z,25.80
2023-06-16T07:56:13.040Z,25.70
2023-06-16T07:58:41.215Z,25.70
2023-06-16T08:01:10.674Z,25.90
2023-06-16T08:03:39.340Z,26.30
2023-06-16T08:06:08.008Z,26.90
2023-06-16T08:08:37.016Z,26.80
2023-06-16T08:11:06.793Z,26.70
2023-06-16T08:13:34.981Z,27.00
2023-06-16T08:16:03.044Z,27.40
2023-06-16T08:18:32.371Z,27.50
2023-06-16T08:21:00.452Z,27.20
2023-06-16T08:23:31.155Z,27.30
2023-06-16T08:26:00.998Z,27.40
2023-06-16T08:28:30.463Z,27.20
2023-06-16T08:30:58.630Z,27.20
2023-06-16T08:33:26.594Z,27.20
2023-06-16T08:35:56.082Z,27.50
2023-06-16T08:38:24.312Z,27.50
2023-06-16T08:40:52.573Z,27.40
2023-06-16T08:43:24.003Z,27.00
2023-06-16T08:45:53.801Z,27.00
2023-06-16T08:48:21.810Z,26.90
2023-06-16T08:50:49.863Z,26.60
2023-06-16T08:53:23.669Z,26.90
2023-06-16T08:55:53.019Z,27.30
2023-06-16T08:58:23.020Z,27.70
2023-06-16T09:00:51.913Z,27.90
2023-06-16T09:03:21.140Z,28.20
2023-06-16T09:05:49.989Z,27.80
2023-06-16T09:08:19.373Z,27.50
2023-06-16T09:10:51.080Z,27.00
2023-06-16T09:13:20.183Z,26.70
2023-06-16T09:15:49.194Z,26.90
2023-06-16T09:18:17.982Z,27.40
2023-06-16T09:20:52.125Z,27.70
2023-06-16T09:23:30.774Z,28.00
2023-06-16T09:25:59.093Z,28.10
2023-06-16T09:28:37.667Z,28.10
2023-06-16T09:31:12.356Z,28.40
2023-06-16T09:33:41.387Z,28.80
2023-06-16T09:36:10.336Z,29.00
2023-06-16T09:38:40.136Z,29.10
2023-06-16T09:41:16.674Z,29.20
2023-06-16T09:43:45.329Z,29.60
2023-06-16T09:46:14.165Z,29.60
2023-06-16T09:48:49.537Z,29.00
2023-06-16T09:51:19.436Z,28.30
2023-06-16T09:53:49.813Z,27.50
2023-06-16T09:56:18.603Z,26.80
2023-06-16T09:58:48.082Z,26.30
2023-06-16T10:01:18.196Z,26.30
2023-06-16T10:03:59.913Z,26.30
2023-06-16T10:06:30.181Z,26.00
2023-06-16T10:09:00.963Z,25.70
2023-06-16T10:11:31.711Z,25.40
2023-06-16T10:14:02.867Z,25.20
2023-06-16T10:16:32.708Z,25.00
2023-06-16T10:19:07.149Z,25.00
2023-06-16T10:21:35.310Z,25.00
2023-06-16T10:24:06.130Z,24.90
2023-06-16T10:26:34.876Z,24.80
2023-06-16T10:29:04.282Z,24.80
2023-06-16T10:31:33.025Z,24.80
2023-06-16T10:34:01.405Z,25.00
2023-06-16T10:36:32.729Z,25.00
2023-06-16T10:39:02.759Z,25.10
2023-06-16T10:41:32.354Z,25.30
2023-06-16T10:44:27.609Z,25.30
2023-06-16T10:47:37.593Z,25.30
2023-06-16T10:50:07.341Z,25.10
2023-06-16T10:52:53.274Z,24.90
2023-06-16T10:55:40.489Z,24.80
2023-06-16T10:58:27.721Z,24.70
2023-06-16T11:01:25.178Z,24.80
2023-06-16T11:04:03.430Z,24.90
2023-06-16T11:07:11.473Z,24.90
2023-06-16T11:10:00.667Z,24.80
2023-06-16T11:12:29.514Z,24.70
2023-06-16T11:14:59.234Z,24.70
2023-06-16T11:17:27.427Z,24.70
2023-06-16T11:19:56.433Z,24.90
2023-06-16T11:22:32.096Z,24.80
2023-06-16T11:25:00.943Z,24.70
2023-06-16T11:27:30.176Z,24.70
2023-06-16T11:30:00.673Z,24.40
2023-06-16T11:32:31.101Z,24.50
2023-06-16T11:34:59.643Z,24.10
2023-06-16T11:37:41.485Z,23.80
2023-06-16T11:40:12.502Z,23.60
2023-06-16T11:42:40.585Z,23.60
2023-06-16T11:45:10.859Z,23.70
2023-06-16T11:47:39.945Z,23.80
2023-06-16T11:50:08.772Z,23.90
2023-06-16T11:52:38.282Z,23.90
2023-06-16T11:55:06.893Z,23.80
2023-06-16T11:57:38.574Z,23.40
2023-06-16T12:00:10.844Z,23.00
2023-06-16T12:02:39.804Z,22.70
2023-06-16T12:05:11.673Z,22.60
2023-06-16T12:07:40.281Z,22.50
2023-06-16T12:10:09.828Z,22.30
2023-06-16T12:12:39.826Z,22.10
2023-06-16T12:15:10.518Z,22.00
2023-06-16T12:17:40.571Z,21.90
2023-06-16T12:20:11.816Z,21.90
2023-06-16T12:22:40.208Z,21.90
2023-06-16T12:25:14.366Z,21.90
2023-06-16T12:27:45.875Z,22.00
2023-06-16T12:30:16.192Z,21.90
2023-06-16T12:32:45.109Z,22.00
2023-06-16T12:35:14.106Z,21.90
2023-06-16T12:37:43.657Z,21.90
2023-06-16T12:40:15.641Z,22.00
2023-06-16T12:42:43.851Z,22.10
2023-06-16T12:45:14.644Z,22.10
2023-06-16T12:47:44.231Z,22.10
2023-06-16T12:50:12.648Z,22.10
2023-06-16T12:52:40.700Z,22.20
2023-06-16T12:55:09.720Z,22.50
2023-06-16T12:57:38.136Z,22.80
2023-06-16T13:00:08.566Z,22.80
2023-06-16T13:02:36.665Z,22.70
2023-06-16T13:05:06.410Z,22.50
2023-06-16T13:07:34.441Z,22.20
2023-06-16T13:10:02.448Z,21.80
2023-06-16T13:12:30.492Z,21.50
2023-06-16T13:14:58.470Z,21.50
2023-06-16T13:17:26.647Z,21.40
2023-06-16T13:19:54.747Z,21.40
2023-06-16T13:22:25.049Z,21.40
2023-06-16T13:24:53.056Z,21.40
2023-06-16T13:27:21.051Z,21.40
2023-06-16T13:29:49.113Z,21.30
2023-06-16T13:32:17.193Z,21.30
2023-06-16T13:34:45.311Z,21.20
2023-06-16T13:37:15.115Z,21.20
2023-06-16T13:39:44.785Z,21.10
2023-06-16T13:42:13.276Z,21.00
2023-06-16T13:44:41.433Z,21.00
2023-06-16T13:47:09.523Z,21.00
2023-06-16T13:49:37.546Z,21.10
2023-06-16T13:52:06.224Z,21.20
2023-06-16T13:54:34.248Z,21.20
2023-06-16T13:57:03.612Z,21.20
2023-06-16T13:59:31.622Z,21.20
2023-06-16T14:01:59.664Z,21.20
2023-06-16T14:04:27.683Z,21.30
2023-06-16T14:06:55.679Z,21.30
2023-06-16T14:09:23.639Z,21.20
2023-06-16T14:11:51.650Z,21.10
2023-06-16T14:14:21.980Z,21.00
2023-06-16T14:16:50.079Z,20.80
2023-06-16T14:19:18.125Z,20.80
2023-06-16T14:21:46.225Z,20.70
2023-06-16T14:24:14.366Z,20.60
2023-06-16T14:26:42.394Z,20.50
2023-06-16T14:29:13.357Z,20.40
2023-06-16T14:31:42.722Z,20.40
2023-06-16T14:34:10.753Z,20.30
2023-06-16T14:36:38.788Z,20.30
2023-06-16T14:39:10.217Z,20.30
2023-06-16T14:41:40.795Z,20.30
2023-06-16T14:44:08.855Z,20.30
2023-06-16T14:46:36.911Z,20.30
2023-06-16T14:49:06.571Z,20.30
2023-06-16T14:51:37.828Z,20.20
2023-06-16T14:54:06.079Z,20.30
2023-06-16T14:56:34.090Z,20.40
2023-06-16T14:59:02.115Z,20.40
2023-06-16T15:01:30.195Z,20.50
2023-06-16T15:03:58.581Z,20.50
2023-06-16T15:06:27.964Z,20.60
2023-06-16T15:08:56.309Z,20.60
2023-06-16T15:11:24.306Z,20.70
2023-06-16T15:13:52.898Z,20.80
2023-06-16T15:16:21.025Z,20.80
2023-06-16T15:18:49.088Z,20.70
2023-06-16T15:21:17.128Z,20.60
2023-06-16T15:23:46.855Z,20.50
2023-06-16T15:26:14.931Z,20.60
2023-06-16T15:28:42.913Z,20.60
2023-06-16T15:31:11.125Z,20.60
2023-06-16T15:33:39.276Z,20.70
2023-06-16T15:36:09.305Z,20.70
2023-06-16T15:38:39.188Z,20.70
2023-06-16T15:41:08.611Z,20.70
2023-06-16T15:43:36.590Z,20.70
2023-06-16T15:46:04.621Z,20.60
2023-06-16T15:48:32.898Z,20.60
2023-06-16T15:51:00.905Z,20.60
2023-06-16T15:53:28.912Z,20.60
2023-06-16T15:55:56.913Z,20.60
2023-06-16T15:58:26.247Z,20.70
2023-06-16T16:00:54.298Z,20.70
2023-06-16T16:03:22.567Z,20.80
2023-06-16T16:05:51.178Z,20.80
2023-06-16T16:08:20.228Z,20.90
2023-06-16T16:10:48.976Z,20.90
2023-06-16T16:13:17.008Z,20.90
2023-06-16T16:15:46.425Z,20.80
2023-06-16T16:18:15.839Z,20.80
2023-06-16T16:20:43.838Z,20.80
2023-06-16T16:23:11.942Z,20.90
2023-06-16T16:25:39.969Z,20.90
2023-06-16T16:28:07.923Z,20.90
2023-06-16T16:30:35.919Z,21.00
2023-06-16T16:33:05.838Z,21.00
2023-06-16T16:35:33.923Z,21.10
2023-06-16T16:38:02.496Z,21.10
2023-06-16T16:40:30.510Z,21.10
2023-06-16T16:42:58.843Z,21.10
2023-06-16T16:45:26.836Z,21.10
2023-06-16T16:47:54.897Z,21.00
2023-06-16T16:50:24.292Z,20.90
2023-06-16T16:52:52.251Z,20.90
2023-06-16T16:55:34.572Z,21.00
2023-06-16T16:58:04.312Z,21.00
2023-06-16T17:00:32.827Z,21.00
2023-06-16T17:03:01.051Z,21.00
2023-06-16T17:05:30.696Z,21.00
2023-06-16T17:07:58.859Z,21.00
2023-06-16T17:10:27.049Z,21.00
2023-06-16T17:12:55.070Z,21.10
2023-06-16T17:15:23.398Z,21.10
2023-06-16T17:17:51.429Z,21.20
2023-06-16T17:20:19.768Z,21.40
2023-06-16T17:22:49.432Z,21.40
2023-06-16T17:25:17.416Z,21.40
2023-06-16T17:27:58.591Z,21.50
2023-06-16T17:30:29.086Z,21.50
2023-06-16T17:33:00.867Z,21.60
2023-06-16T17:35:30.319Z,21.60
2023-06-16T17:38:00.612Z,21.60
2023-06-16T17:40:31.417Z,21.60
2023-06-16T17:42:59.414Z,21.60
2023-06-16T17:45:27.472Z,21.50
2023-06-16T17:47:55.536Z,21.50
2023-06-16T17:50:27.477Z,21.50
2023-06-16T17:52:56.652Z,21.50
2023-06-16T17:55:26.292Z,21.50
2023-06-16T17:57:54.318Z,21.50
2023-06-16T18:00:23.109Z,21.40
2023-06-16T18:02:51.426Z,21.30
2023-06-16T18:05:22.030Z,21.20
2023-06-16T18:07:51.521Z,21.20
2023-06-16T18:10:19.971Z,21.20
2023-06-16T18:12:49.668Z,21.10
2023-06-16T18:15:17.746Z,21.10
2023-06-16T18:17:46.682Z,21.10
2023-06-16T18:20:14.846Z,21.00
2023-06-16T18:22:43.005Z,21.00
2023-06-16T18:25:11.156Z,21.00
2023-06-16T18:27:39.163Z,21.00
2023-06-16T18:30:10.066Z,20.90
2023-06-16T18:32:38.093Z,20.90
2023-06-16T18:35:07.350Z,20.80
2023-06-16T18:37:43.728Z,20.70
2023-06-16T18:40:12.641Z,20.60
2023-06-16T18:42:40.715Z,20.50
2023-06-16T18:45:11.156Z,20.40
2023-06-16T18:47:39.611Z,20.40
2023-06-16T18:50:12.605Z,20.40
2023-06-16T18:52:40.778Z,20.40
2023-06-16T18:55:09.330Z,20.40
2023-06-16T18:57:38.239Z,20.30
2023-06-16T19:00:08.828Z,20.20
2023-06-16T19:02:39.057Z,20.10
2023-06-16T19:05:08.679Z,20.00
2023-06-16T19:07:36.706Z,19.90
2023-06-16T19:10:05.156Z,19.90
2023-06-16T19:12:33.606Z,19.90
2023-06-16T19:15:01.769Z,19.90
2023-06-16T19:17:29.899Z,19.80
2023-06-16T19:19:59.300Z,19.70
2023-06-16T19:22:27.268Z,19.60
2023-06-16T19:24:55.257Z,19.50
2023-06-16T19:27:23.490Z,19.40
2023-06-16T19:29:51.526Z,19.40
2023-06-16T19:32:19.702Z,19.40
2023-06-16T19:34:48.194Z,19.40
2023-06-16T19:37:17.608Z,19.40
2023-06-16T19:39:45.660Z,19.30
2023-06-16T19:42:13.752Z,19.20
2023-06-16T19:44:44.001Z,19.20
2023-06-16T19:47:12.237Z,19.10
2023-06-16T19:49:40.573Z,19.10
2023-06-16T19:52:09.732Z,19.00
2023-06-16T19:54:39.144Z,19.00
2023-06-16T19:57:07.757Z,18.90
2023-06-16T19:59:36.040Z,18.90
2023-06-16T20:02:04.208Z,18.90
2023-06-16T20:04:34.523Z,18.90
2023-06-16T20:07:03.318Z,18.80
2023-06-16T20:09:33.948Z,18.80
2023-06-16T20:12:03.593Z,18.80
2023-06-16T20:14:31.826Z,18.70
2023-06-16T20:17:01.947Z,18.70
2023-06-16T20:19:30.353Z,18.60
2023-06-16T20:21:59.493Z,18.60
2023-06-16T20:24:27.673Z,18.60
2023-06-16T20:26:56.191Z,18.50
2023-06-16T20:29:25.662Z,18.50
2023-06-16T20:31:53.680Z,18.40
2023-06-16T20:34:21.651Z,18.40
2023-06-16T20:36:49.729Z,18.40
2023-06-16T20:39:18.136Z,18.40
2023-06-16T20:41:46.271Z,18.30
2023-06-16T20:44:17.846Z,18.30
2023-06-16T20:46:50.042Z,18.30
2023-06-16T20:49:19.089Z,18.20
2023-06-16T20:51:47.130Z,18.20
2023-06-16T20:54:15.304Z,18.20
2023-06-16T20:56:43.377Z,18.20
2023-06-16T20:59:13.076Z,18.10
2023-06-16T21:01:44.193Z,18.10
2023-06-16T21:04:15.047Z,18.00
2023-06-16T21:06:43.310Z,18.10
2023-06-16T21:09:12.936Z,18.00
2023-06-16T21:11:41.327Z,17.90
2023-06-16T21:14:10.557Z,17.90
2023-06-16T21:16:39.049Z,17.80
2023-06-16T21:19:07.311Z,17.80
2023-06-16T21:21:36.836Z,17.80
2023-06-16T21:24:06.679Z,17.80
2023-06-16T21:26:34.857Z,17.70
2023-06-16T21:29:03.888Z,17.60
2023-06-16T21:31:32.003Z,17.60
2023-06-16T21:34:00.115Z,17.60
2023-06-16T21:36:28.348Z,17.60
2023-06-16T21:38:59.330Z,17.50
2023-06-16T21:41:27.439Z,17.60
2023-06-16T21:43:55.597Z,17.60
2023-06-16T21:46:23.848Z,17.50
2023-06-16T21:48:52.312Z,17.50
2023-06-16T21:51:20.422Z,17.50
2023-06-16T21:53:48.565Z,17.40
2023-06-16T21:56:18.721Z,17.40
2023-06-16T21:58:46.892Z,17.40
2023-06-16T22:01:15.062Z,17.40
2023-06-16T22:03:43.219Z,17.40
2023-06-16T22:06:13.167Z,17.30
2023-06-16T22:08:41.298Z,17.30
2023-06-16T22:11:09.315Z,17.40
2023-06-16T22:13:38.849Z,17.30
2023-06-16T22:16:07.487Z,17.40
2023-06-16T22:18:35.590Z,17.40
2023-06-16T22:21:03.970Z,17.40
2023-06-16T22:23:32.082Z,17.50
2023-06-16T22:26:00.156Z,17.40
2023-06-16T22:28:28.314Z,17.40
2023-06-16T22:30:57.935Z,17.40
2023-06-16T22:33:26.154Z,17.40
2023-06-16T22:35:54.238Z,17.50
2023-06-16T22:38:22.519Z,17.50
2023-06-16T22:40:50.637Z,17.40
2023-06-16T22:43:18.768Z,17.50
2023-06-16T22:45:46.825Z,17.50
2023-06-16T22:48:16.451Z,17.50
2023-06-16T22:50:47.918Z,17.50
2023-06-16T22:53:16.200Z,17.50
2023-06-16T22:55:44.344Z,17.40
2023-06-16T22:58:12.424Z,17.40
2023-06-16T23:00:40.565Z,17.40
2023-06-16T23:03:08.721Z,17.40
2023-06-16T23:05:38.192Z,17.30
2023-06-16T23:08:06.642Z,17.20
2023-06-16T23:10:34.783Z,17.20
2023-06-16T23:13:02.885Z,17.10
2023-06-16T23:15:30.962Z,17.10
2023-06-16T23:17:59.015Z,17.00
2023-06-16T23:20:27.143Z,17.10
2023-06-16T23:22:56.537Z,17.00
2023-06-16T23:25:24.561Z,17.00
2023-06-16T23:27:55.330Z,17.10
2023-06-16T23:30:23.925Z,17.00
2023-06-16T23:32:52.224Z,17.00
2023-06-16T23:35:20.792Z,17.00
2023-06-16T23:37:49.110Z,17.00
2023-06-16T23:40:18.902Z,17.00
2023-06-16T23:42:47.142Z,16.90
2023-06-16T23:45:16.618Z,17.00
2023-06-16T23:47:46.341Z,17.00
2023-06-16T23:50:14.450Z,17.10
2023-06-16T23:52:42.457Z,17.10
2023-06-16T23:55:10.854Z,17.10
2023-06-16T23:57:41.477Z,17.10
